createdAt,value
2019-02-11T00:00:14.270Z,6.20
2019-02-11T00:05:43.893Z,6.19
2019-02-11T00:08:12.451Z,6.24
2019-02-11T00:10:41.002Z,6.25
2019-02-11T00:13:10.905Z,6.31
2019-02-11T00:15:39.596Z,6.30
2019-02-11T00:18:08.156Z,6.27
2019-02-11T00:20:37.081Z,6.22
2019-02-11T00:23:05.800Z,6.27
2019-02-11T00:25:34.351Z,6.33
2019-02-11T00:28:02.923Z,6.34
2019-02-11T00:30:32.231Z,6.33
2019-02-11T00:33:00.836Z,6.23
2019-02-11T00:35:29.380Z,6.33
2019-02-11T00:37:57.953Z,6.32
2019-02-11T00:40:26.507Z,6.23
2019-02-11T00:42:58.011Z,6.10
2019-02-11T00:45:26.913Z,5.93
2019-02-11T00:47:55.480Z,5.81
2019-02-11T00:50:25.588Z,5.76
2019-02-11T00:52:55.706Z,5.71
2019-02-11T00:55:27.026Z,5.69
2019-02-11T00:57:55.600Z,5.62
2019-02-11T01:00:25.847Z,5.52
2019-02-11T01:02:57.091Z,5.42
2019-02-11T01:05:25.628Z,5.27
2019-02-11T01:07:55.742Z,5.25
2019-02-11T01:10:27.329Z,5.29
2019-02-11T01:12:55.900Z,5.29
2019-02-11T01:15:27.473Z,5.15
2019-02-11T01:17:56.047Z,5.15
2019-02-11T01:20:24.594Z,4.91
2019-02-11T01:22:53.264Z,4.82
2019-02-11T01:25:22.241Z,4.69
2019-02-11T01:27:50.813Z,4.69
2019-02-11T01:30:19.362Z,4.63
2019-02-11T01:32:47.943Z,4.63
2019-02-11T01:35:16.486Z,4.47
2019-02-11T01:41:20.021Z,3.99
2019-02-11T01:43:48.595Z,3.80
2019-02-11T01:46:17.147Z,3.63
2019-02-11T01:48:45.717Z,3.60
2019-02-11T01:51:14.271Z,3.52
2019-02-11T01:53:43.002Z,3.56
2019-02-11T01:56:11.556Z,3.48
2019-02-11T01:58:40.132Z,3.49
2019-02-11T02:01:08.986Z,3.32
2019-02-11T02:03:37.563Z,3.29
2019-02-11T02:06:06.118Z,3.36
2019-02-11T02:08:34.776Z,3.21
2019-02-11T02:11:03.325Z,3.02
2019-02-11T02:13:31.912Z,2.85
2019-02-11T02:16:00.836Z,2.66
2019-02-11T02:18:29.404Z,2.66
2019-02-11T02:20:57.969Z,2.50
2019-02-11T02:23:29.574Z,2.48
2019-02-11T02:26:03.971Z,2.47
2019-02-11T02:28:32.540Z,2.45
2019-02-11T02:31:01.101Z,2.28
2019-02-11T02:33:29.674Z,2.17
2019-02-11T02:35:58.220Z,2.09
2019-02-11T02:38:26.786Z,2.07
2019-02-11T02:40:55.415Z,2.09
2019-02-11T02:43:25.518Z,2.00
2019-02-11T02:45:55.603Z,1.96
2019-02-11T02:48:26.116Z,1.92
2019-02-11T02:50:55.001Z,1.84
2019-02-11T02:53:26.667Z,1.68
2019-02-11T02:55:55.219Z,1.65
2019-02-11T02:58:23.788Z,1.65
2019-02-11T03:04:20.791Z,1.57
2019-02-11T03:06:49.365Z,1.41
2019-02-11T03:09:17.987Z,1.34
2019-02-11T03:11:46.562Z,1.29
2019-02-11T03:14:15.104Z,1.22
2019-02-11T03:16:44.110Z,1.23
2019-02-11T03:19:12.673Z,1.14
2019-02-11T03:21:41.207Z,1.06
2019-02-11T03:24:10.158Z,1.10
2019-02-11T03:26:38.726Z,1.05
2019-02-11T03:29:24.541Z,0.92
2019-02-11T03:31:53.111Z,0.93
2019-02-11T03:34:23.857Z,0.88
2019-02-11T03:36:54.198Z,0.91
2019-02-11T03:39:23.227Z,0.87
2019-02-11T03:41:54.599Z,0.80
2019-02-11T03:44:23.137Z,0.85
2019-02-11T03:46:53.922Z,0.77
2019-02-11T03:49:24.197Z,0.80
2019-02-11T03:51:53.150Z,0.83
2019-02-11T03:54:24.872Z,0.82
2019-02-11T03:56:56.777Z,0.81
2019-02-11T03:59:25.416Z,0.80
2019-02-11T04:01:54.052Z,0.81
2019-02-11T04:04:22.676Z,0.90
2019-02-11T04:06:52.295Z,0.86
2019-02-11T04:09:20.941Z,0.91
2019-02-11T04:11:49.497Z,0.98
2019-02-11T04:14:24.665Z,1.09
2019-02-11T04:16:48.371Z,1.22
2019-02-11T04:19:16.930Z,1.33
2019-02-11T04:21:45.989Z,1.43
2019-02-11T04:24:14.500Z,1.60
2019-02-11T04:26:43.067Z,1.68
2019-02-11T04:29:11.612Z,1.80
2019-02-11T04:31:40.588Z,1.97
2019-02-11T04:34:09.137Z,2.03
2019-02-11T04:36:38.113Z,2.18
2019-02-11T04:39:06.658Z,2.30
2019-02-11T04:41:35.243Z,2.43
2019-02-11T04:44:03.781Z,2.53
2019-02-11T04:46:32.354Z,2.68
2019-02-11T04:49:01.305Z,2.84
2019-02-11T04:51:29.915Z,2.91
2019-02-11T04:53:58.828Z,3.00
2019-02-11T04:56:27.379Z,3.04
2019-02-11T04:58:56.377Z,3.15
2019-02-11T05:01:24.925Z,3.20
2019-02-11T05:03:55.013Z,3.31
2019-02-11T05:06:26.635Z,3.34
2019-02-11T05:08:55.210Z,3.41
2019-02-11T05:11:26.609Z,3.44
2019-02-11T05:13:55.164Z,3.46
2019-02-11T05:16:27.132Z,3.46
2019-02-11T05:18:55.696Z,3.48
2019-02-11T05:21:27.208Z,3.54
2019-02-11T05:23:55.964Z,3.53
2019-02-11T05:26:24.558Z,3.55
2019-02-11T05:28:53.129Z,3.55
2019-02-11T05:31:25.109Z,3.55
2019-02-11T05:33:56.943Z,3.51
2019-02-11T05:36:25.501Z,3.49
2019-02-11T05:38:55.614Z,3.49
2019-02-11T05:41:25.700Z,3.53
2019-02-11T05:43:55.818Z,3.55
2019-02-11T05:46:27.326Z,3.55
2019-02-11T05:48:56.245Z,3.61
2019-02-11T05:51:24.791Z,3.63
2019-02-11T05:53:54.885Z,3.58
2019-02-11T05:56:24.952Z,3.63
2019-02-11T05:58:55.042Z,3.64
2019-02-11T06:01:26.605Z,3.64
2019-02-11T06:03:58.402Z,3.66
2019-02-11T06:06:27.030Z,3.73
2019-02-11T06:08:55.673Z,3.74
2019-02-11T06:11:25.771Z,3.78
2019-02-11T06:13:57.131Z,3.81
2019-02-11T06:16:26.065Z,3.79
2019-02-11T06:18:54.749Z,3.79
2019-02-11T06:21:23.285Z,3.86
2019-02-11T06:23:52.246Z,3.87
2019-02-11T06:26:20.805Z,3.86
2019-02-11T06:28:49.323Z,3.90
2019-02-11T06:31:17.919Z,3.89
2019-02-11T06:33:46.486Z,3.90
2019-02-11T06:36:15.098Z,3.90
2019-02-11T06:38:43.650Z,3.96
2019-02-11T06:41:12.196Z,3.96
2019-02-11T06:43:40.781Z,3.96
2019-02-11T06:46:09.371Z,4.06
2019-02-11T06:48:37.956Z,4.09
2019-02-11T06:51:06.552Z,4.11
2019-02-11T06:53:35.086Z,4.13
2019-02-11T06:56:05.284Z,4.11
2019-02-11T06:58:33.840Z,4.19
2019-02-11T07:01:02.441Z,4.17
2019-02-11T07:03:31.004Z,4.20
2019-02-11T07:05:59.567Z,4.26
2019-02-11T07:08:28.152Z,4.26
2019-02-11T07:10:56.879Z,4.28
2019-02-11T07:13:25.429Z,4.23
2019-02-11T07:15:55.584Z,4.26
2019-02-11T07:18:25.434Z,4.26
2019-02-11T07:20:55.594Z,4.30
2019-02-11T07:23:25.847Z,4.32
2019-02-11T07:25:54.771Z,4.34
2019-02-11T07:28:25.120Z,4.36
2019-02-11T07:31:00.494Z,4.39
2019-02-11T07:33:30.663Z,4.37
2019-02-11T07:35:59.275Z,4.30
2019-02-11T07:38:27.845Z,4.31
2019-02-11T07:40:56.559Z,4.39
2019-02-11T07:43:29.825Z,4.40
2019-02-11T07:46:02.940Z,4.41
2019-02-11T07:48:31.492Z,4.47
2019-02-11T07:51:00.096Z,4.53
2019-02-11T07:53:29.045Z,4.58
2019-02-11T07:55:58.067Z,4.66
2019-02-11T07:58:27.185Z,4.63
2019-02-11T08:00:55.782Z,4.63
2019-02-11T08:03:24.417Z,4.51
2019-02-11T08:05:56.253Z,4.51
2019-02-11T08:08:24.873Z,4.48
2019-02-11T08:10:54.943Z,4.56
2019-02-11T08:13:23.686Z,4.56
2019-02-11T08:15:55.268Z,4.54
2019-02-11T08:18:27.922Z,4.73
2019-02-11T08:20:56.709Z,4.73
2019-02-11T08:23:25.296Z,4.73
2019-02-11T08:25:56.933Z,4.66
2019-02-11T08:28:25.685Z,4.72
2019-02-11T08:30:57.075Z,4.75
2019-02-11T08:33:25.908Z,4.65
2019-02-11T08:36:01.096Z,4.64
2019-02-11T08:38:29.693Z,4.64
2019-02-11T08:40:58.298Z,4.82
2019-02-11T08:43:26.869Z,4.75
2019-02-11T08:45:55.568Z,4.75
2019-02-11T08:48:27.533Z,4.76
2019-02-11T08:50:56.160Z,4.76
2019-02-11T08:53:24.865Z,5.19
2019-02-11T08:55:53.443Z,5.19
2019-02-11T08:58:22.729Z,5.27
2019-02-11T09:00:51.604Z,5.27
2019-02-11T09:03:20.266Z,5.17
2019-02-11T09:05:49.167Z,5.17
2019-02-11T09:08:17.715Z,5.18
2019-02-11T09:10:46.285Z,5.18
2019-02-11T09:13:14.885Z,5.19
2019-02-11T09:15:43.446Z,4.83
2019-02-11T09:18:12.107Z,4.83
2019-02-11T09:20:42.091Z,4.91
2019-02-11T09:23:10.818Z,4.98
2019-02-11T09:25:39.741Z,4.98
2019-02-11T09:28:10.186Z,5.00
2019-02-11T09:30:39.926Z,5.17
2019-02-11T09:33:08.706Z,5.26
2019-02-11T09:35:37.397Z,5.22
2019-02-11T09:38:06.153Z,5.22
2019-02-11T09:40:34.732Z,5.31
2019-02-11T09:43:03.680Z,5.34
2019-02-11T09:45:32.271Z,5.34
2019-02-11T09:48:00.816Z,5.51
2019-02-11T09:50:35.309Z,5.51
2019-02-11T09:53:05.453Z,5.53
2019-02-11T09:55:35.002Z,5.55
2019-02-11T09:58:03.548Z,5.64
2019-02-11T10:00:32.656Z,5.48
2019-02-11T10:03:01.230Z,5.52
2019-02-11T10:05:31.893Z,5.52
2019-02-11T10:08:00.536Z,5.64
2019-02-11T10:10:29.212Z,5.60
2019-02-11T10:12:58.383Z,5.64
2019-02-11T10:15:27.037Z,5.51
2019-02-11T10:17:55.671Z,5.35
2019-02-11T10:20:24.400Z,5.35
2019-02-11T10:22:53.125Z,5.37
2019-02-11T10:25:24.834Z,5.37
2019-02-11T10:27:55.161Z,5.44
2019-02-11T10:30:30.467Z,5.45
2019-02-11T10:32:59.714Z,5.66
2019-02-11T10:35:28.364Z,5.80
2019-02-11T10:37:57.406Z,5.80
2019-02-11T10:40:26.016Z,5.74
2019-02-11T10:42:54.651Z,5.74
2019-02-11T10:45:23.324Z,5.78
2019-02-11T10:47:52.844Z,5.73
2019-02-11T10:50:21.496Z,5.73
2019-02-11T10:52:50.077Z,5.76
2019-02-11T10:55:22.798Z,5.77
2019-02-11T10:57:54.066Z,5.86
2019-02-11T11:00:24.598Z,5.88
2019-02-11T11:02:53.507Z,5.83
2019-02-11T11:05:22.538Z,5.94
2019-02-11T11:07:52.331Z,5.87
2019-02-11T11:10:36.264Z,5.98
2019-02-11T11:13:04.942Z,5.95
2019-02-11T11:15:33.662Z,5.91
2019-02-11T11:18:02.507Z,6.00
2019-02-11T11:20:31.580Z,6.00
2019-02-11T11:23:00.547Z,6.08
2019-02-11T11:25:29.183Z,6.19
2019-02-11T11:27:58.205Z,6.19
2019-02-11T11:30:27.433Z,6.24
2019-02-11T11:32:56.200Z,6.19
2019-02-11T11:35:26.635Z,6.30
2019-02-11T11:37:55.520Z,6.20
2019-02-11T11:40:24.604Z,6.36
2019-02-11T11:42:53.180Z,6.34
2019-02-11T11:45:22.094Z,6.37
2019-02-11T11:47:50.735Z,6.31
2019-02-11T11:50:19.458Z,6.20
2019-02-11T11:52:48.047Z,6.16
2019-02-11T11:55:19.019Z,6.05
2019-02-11T11:57:47.931Z,6.04
2019-02-11T12:00:25.697Z,6.25
2019-02-11T12:03:02.665Z,6.38
2019-02-11T12:05:25.404Z,6.46
2019-02-11T12:07:54.783Z,6.50
2019-02-11T12:10:23.553Z,6.44
2019-02-11T12:12:53.170Z,6.51
2019-02-11T12:15:27.182Z,6.48
2019-02-11T12:17:56.110Z,6.41
2019-02-11T12:20:24.714Z,6.40
2019-02-11T12:22:53.903Z,6.33
2019-02-11T12:25:22.555Z,6.40
2019-02-11T12:27:51.141Z,6.27
2019-02-11T12:30:27.437Z,6.34
2019-02-11T12:32:56.607Z,6.45
2019-02-11T12:35:25.519Z,6.42
2019-02-11T12:37:54.173Z,6.43
2019-02-11T12:40:22.831Z,6.39
2019-02-11T12:42:53.038Z,6.46
2019-02-11T12:45:24.058Z,6.49
2019-02-11T12:47:52.902Z,6.41
2019-02-11T12:50:21.818Z,6.38
2019-02-11T12:52:50.604Z,6.28
2019-02-11T12:55:19.592Z,6.29
2019-02-11T13:00:58.315Z,6.27
2019-02-11T13:03:26.897Z,6.30
2019-02-11T13:05:55.453Z,6.35
2019-02-11T13:08:24.101Z,6.46
2019-02-11T13:10:52.653Z,6.58
2019-02-11T13:13:22.456Z,6.74
2019-02-11T13:16:00.984Z,6.70
2019-02-11T13:18:22.868Z,6.71
2019-02-11T13:20:52.310Z,6.68
2019-02-11T13:23:20.910Z,6.95
2019-02-11T13:25:50.342Z,7.17
2019-02-11T13:28:18.897Z,7.23
2019-02-11T13:30:47.466Z,7.30
2019-02-11T13:33:16.028Z,7.32
2019-02-11T13:35:44.589Z,7.41
2019-02-11T13:38:13.148Z,7.23
2019-02-11T13:40:41.796Z,7.21
2019-02-11T13:43:10.342Z,7.19
2019-02-11T13:45:38.915Z,7.35
2019-02-11T13:48:07.461Z,6.99
2019-02-11T13:50:36.103Z,7.08
2019-02-11T13:53:04.805Z,7.13
2019-02-11T13:55:33.364Z,7.09
2019-02-11T13:58:02.277Z,7.20
2019-02-11T14:00:35.110Z,7.05
2019-02-11T14:03:05.947Z,6.82
2019-02-11T14:05:34.775Z,6.70
2019-02-11T14:08:03.762Z,6.74
2019-02-11T14:10:32.688Z,6.59
2019-02-11T14:13:01.729Z,6.45
2019-02-11T14:15:30.349Z,6.34
2019-02-11T14:18:14.290Z,6.42
2019-02-11T14:20:40.839Z,6.49
2019-02-11T14:23:09.386Z,6.48
2019-02-11T14:25:44.439Z,6.46
2019-02-11T14:28:08.315Z,6.45
2019-02-11T14:30:36.935Z,6.47
2019-02-11T14:33:06.160Z,6.44
2019-02-11T14:35:34.833Z,6.46
2019-02-11T14:38:03.631Z,6.48
2019-02-11T14:40:32.387Z,6.49
2019-02-11T14:43:01.122Z,6.58
2019-02-11T14:45:30.194Z,6.66
2019-02-11T14:47:58.832Z,6.68
2019-02-11T14:50:27.393Z,6.50
2019-02-11T14:52:55.962Z,6.58
2019-02-11T14:55:24.524Z,6.70
2019-02-11T14:57:53.225Z,6.70
2019-02-11T15:00:24.593Z,6.81
2019-02-11T15:02:53.172Z,6.83
2019-02-11T15:05:24.302Z,6.87
2019-02-11T15:07:55.570Z,6.75
2019-02-11T15:10:25.730Z,6.70
2019-02-11T15:12:57.026Z,6.57
2019-02-11T15:15:25.797Z,6.39
2019-02-11T15:17:55.326Z,6.31
2019-02-11T15:20:23.873Z,6.17
2019-02-11T15:22:54.411Z,6.17
2019-02-11T15:25:23.088Z,6.16
2019-02-11T15:27:54.263Z,6.21
2019-02-11T15:30:25.819Z,6.15
2019-02-11T15:32:57.709Z,6.10
2019-02-11T15:35:26.592Z,6.10
2019-02-11T15:37:55.162Z,6.05
2019-02-11T15:40:24.079Z,6.07
2019-02-11T15:42:52.657Z,5.92
2019-02-11T15:45:22.355Z,5.87
2019-02-11T15:47:50.868Z,5.91
2019-02-11T15:50:19.477Z,5.93
2019-02-11T15:52:53.302Z,5.91
2019-02-11T15:55:24.543Z,5.89
2019-02-11T15:57:53.539Z,5.89
2019-02-11T16:00:26.499Z,5.80
2019-02-11T16:02:55.438Z,5.77
2019-02-11T16:05:26.953Z,5.72
2019-02-11T16:07:55.609Z,5.63
2019-02-11T16:10:28.704Z,5.59
2019-02-11T16:13:00.052Z,5.49
2019-02-11T16:15:28.754Z,5.49
2019-02-11T16:17:57.332Z,5.31
2019-02-11T16:20:25.948Z,5.30
2019-02-11T16:22:54.521Z,5.33
2019-02-11T16:25:23.076Z,5.17
2019-02-11T16:27:53.676Z,5.17
2019-02-11T16:30:23.996Z,5.24
2019-02-11T16:32:52.601Z,5.24
2019-02-11T16:35:23.098Z,5.19
2019-02-11T16:37:54.041Z,5.19
2019-02-11T16:40:25.415Z,5.17
2019-02-11T16:42:54.096Z,5.17
2019-02-11T16:45:22.688Z,5.06
2019-02-11T16:47:51.357Z,5.06
2019-02-11T16:50:19.997Z,4.99
2019-02-11T16:52:48.542Z,4.95
2019-02-11T16:55:17.106Z,4.81
2019-02-11T16:57:45.660Z,4.81
2019-02-11T17:00:16.571Z,4.83
2019-02-11T17:02:45.196Z,4.79
2019-02-11T17:05:14.712Z,4.79
2019-02-11T17:07:43.320Z,4.71
2019-02-11T17:10:13.503Z,4.61
2019-02-11T17:12:42.532Z,4.53
2019-02-11T17:15:16.283Z,4.54
2019-02-11T17:17:44.804Z,4.47
2019-02-11T17:20:15.096Z,4.35
2019-02-11T17:22:44.094Z,4.32
2019-02-11T17:25:13.504Z,4.33
2019-02-11T17:27:42.272Z,4.36
2019-02-11T17:30:28.808Z,4.36
2019-02-11T17:33:00.061Z,4.31
2019-02-11T17:35:29.032Z,4.24
2019-02-11T17:37:57.585Z,4.26
2019-02-11T17:40:26.171Z,4.21
2019-02-11T17:43:12.383Z,4.23
2019-02-11T17:45:42.903Z,4.16
2019-02-11T17:48:25.936Z,4.19
2019-02-11T17:50:55.055Z,4.11
2019-02-11T17:53:34.167Z,4.12
2019-02-11T17:56:12.204Z,4.13
2019-02-11T17:58:41.438Z,4.29
2019-02-11T18:01:13.130Z,4.29
2019-02-11T18:03:42.041Z,4.30
2019-02-11T18:06:10.713Z,4.20
2019-02-11T18:08:41.939Z,4.09
2019-02-11T18:11:10.602Z,4.09
2019-02-11T18:13:39.222Z,4.12
2019-02-11T18:16:07.801Z,4.05
2019-02-11T18:18:36.351Z,4.07
2019-02-11T18:21:04.932Z,3.96
2019-02-11T18:23:33.543Z,3.93
2019-02-11T18:26:02.133Z,3.93
2019-02-11T18:28:30.712Z,3.91
2019-02-11T18:30:59.284Z,3.89
2019-02-11T18:33:28.186Z,3.85
2019-02-11T18:35:57.110Z,3.85
2019-02-11T18:38:25.662Z,3.98
2019-02-11T18:40:57.268Z,3.95
2019-02-11T18:43:25.821Z,3.85
2019-02-11T18:45:54.387Z,3.86
2019-02-11T18:48:25.807Z,3.86
2019-02-11T18:50:57.340Z,3.79
2019-02-11T18:53:26.052Z,3.79
2019-02-11T18:55:54.635Z,3.86
2019-02-11T18:58:23.603Z,3.92
2019-02-11T19:00:52.842Z,3.95
2019-02-11T19:03:22.008Z,3.93
2019-02-11T19:05:50.655Z,3.91
2019-02-11T19:08:19.234Z,3.84
2019-02-11T19:10:47.806Z,3.85
2019-02-11T19:13:16.367Z,3.90
2019-02-11T19:15:45.096Z,3.90
2019-02-11T19:18:13.654Z,3.93
2019-02-11T19:20:42.237Z,3.90
2019-02-11T19:23:13.868Z,3.89
2019-02-11T19:25:42.872Z,3.85
2019-02-11T19:28:11.427Z,3.83
2019-02-11T19:30:39.997Z,3.81
2019-02-11T19:33:08.605Z,3.81
2019-02-11T19:35:37.218Z,3.73
2019-02-11T19:38:05.926Z,3.73
2019-02-11T19:40:34.961Z,3.71
2019-02-11T19:43:03.662Z,3.71
2019-02-11T19:45:32.235Z,3.73
2019-02-11T19:48:01.150Z,3.68
2019-02-11T19:50:30.671Z,3.57
2019-02-11T19:52:59.321Z,3.58
2019-02-11T19:55:27.869Z,3.52
2019-02-11T19:57:56.440Z,3.43
2019-02-11T20:00:25.119Z,3.42
2019-02-11T20:02:56.988Z,3.35
2019-02-11T20:05:25.801Z,3.28
2019-02-11T20:07:57.373Z,3.22
2019-02-11T20:10:26.077Z,3.14
2019-02-11T20:12:54.646Z,3.17
2019-02-11T20:15:29.449Z,3.09
2019-02-11T20:17:58.376Z,3.05
2019-02-11T20:20:27.455Z,2.96
2019-02-11T20:22:56.523Z,2.87
2019-02-11T20:25:25.451Z,2.91
2019-02-11T20:27:55.639Z,2.94
2019-02-11T20:30:28.554Z,2.94
2019-02-11T20:32:57.463Z,2.95
2019-02-11T20:35:26.103Z,2.88
2019-02-11T20:37:55.223Z,2.91
2019-02-11T20:40:28.713Z,2.92
2019-02-11T20:43:12.720Z,2.94
2019-02-11T20:45:41.254Z,2.95
2019-02-11T20:48:10.237Z,2.96
2019-02-11T20:50:38.963Z,2.94
2019-02-11T20:53:07.612Z,2.83
2019-02-11T20:55:36.168Z,2.88
2019-02-11T20:58:04.816Z,2.84
2019-02-11T21:00:33.385Z,2.87
2019-02-11T21:03:08.108Z,2.84
2019-02-11T21:05:32.321Z,2.83
2019-02-11T21:08:01.378Z,2.76
2019-02-11T21:10:30.077Z,2.75
2019-02-11T21:12:59.032Z,2.68
2019-02-11T21:15:27.580Z,2.65
2019-02-11T21:17:56.195Z,2.68
2019-02-11T21:20:27.797Z,2.65
2019-02-11T21:22:56.476Z,2.70
2019-02-11T21:25:25.085Z,2.65
2019-02-11T21:27:56.180Z,2.61
2019-02-11T21:30:24.785Z,2.61
2019-02-11T21:32:55.085Z,2.59
2019-02-11T21:35:26.589Z,2.52
2019-02-11T21:37:55.185Z,2.50
2019-02-11T21:40:24.234Z,2.49
2019-02-11T21:42:53.444Z,2.46
2019-02-11T21:45:24.829Z,2.49
2019-02-11T21:47:56.141Z,2.44
2019-02-11T21:50:26.716Z,2.35
2019-02-11T21:52:55.097Z,2.34
2019-02-11T21:55:25.452Z,2.34
2019-02-11T21:57:54.124Z,2.29
2019-02-11T22:00:23.679Z,2.23
2019-02-11T22:02:52.327Z,2.25
2019-02-11T22:05:21.040Z,2.25
2019-02-11T22:07:50.100Z,2.23
2019-02-11T22:10:23.513Z,2.12
2019-02-11T22:12:53.108Z,2.12
2019-02-11T22:15:23.961Z,2.05
2019-02-11T22:17:54.186Z,2.05
2019-02-11T22:20:23.163Z,2.01
2019-02-11T22:22:52.202Z,1.97
2019-02-11T22:25:20.751Z,1.92
2019-02-11T22:27:49.335Z,1.90
2019-02-11T22:30:23.178Z,1.84
2019-02-11T22:32:52.112Z,1.86
2019-02-11T22:35:20.742Z,1.83
2019-02-11T22:37:50.833Z,1.78
2019-02-11T22:40:19.479Z,1.87
2019-02-11T22:42:48.412Z,1.82
2019-02-11T22:45:25.906Z,1.77
2019-02-11T22:47:54.524Z,1.78
2019-02-11T22:50:23.248Z,1.76
2019-02-11T22:52:54.917Z,1.71
2019-02-11T22:55:23.684Z,1.68
2019-02-11T22:57:53.969Z,1.71
2019-02-11T23:00:51.270Z,1.81
2019-02-11T23:03:19.963Z,1.83
2019-02-11T23:05:48.517Z,1.81
2019-02-11T23:08:20.264Z,1.87
2019-02-11T23:10:48.806Z,1.87
2019-02-11T23:13:17.791Z,2.00
2019-02-11T23:15:46.332Z,2.06
2019-02-11T23:18:14.909Z,2.13
2019-02-11T23:20:51.546Z,2.16
2019-02-11T23:23:13.886Z,2.24
2019-02-11T23:25:42.522Z,2.30
2019-02-11T23:28:11.082Z,2.28
2019-02-11T23:30:39.928Z,2.35
2019-02-11T23:33:08.481Z,2.35
2019-02-11T23:35:37.050Z,2.33
2019-02-11T23:38:05.612Z,2.36
2019-02-11T23:40:34.256Z,2.42
2019-02-11T23:43:03.147Z,2.44
2019-02-11T23:45:32.072Z,2.44
2019-02-11T23:48:00.685Z,2.45
2019-02-11T23:50:29.256Z,2.46
2019-02-11T23:52:57.879Z,2.49
2019-02-11T23:55:27.002Z,2.47
2019-02-11T23:57:55.732Z,2.52
